createdAt,value
2019-03-06T00:02:52.850Z,6.20
2019-03-06T00:04:09.433Z,6.20
2019-03-06T00:05:26.287Z,6.20
2019-03-06T00:06:42.812Z,6.20
2019-03-06T00:07:59.195Z,6.20
2019-03-06T00:09:15.981Z,6.20
2019-03-06T00:10:32.517Z,6.30
2019-03-06T00:11:49.748Z,6.30
2019-03-06T00:13:06.124Z,6.30
2019-03-06T00:14:22.744Z,6.30
2019-03-06T00:15:39.108Z,6.40
2019-03-06T00:16:56.237Z,6.40
2019-03-06T00:18:12.685Z,6.40
2019-03-06T00:19:28.906Z,6.40
2019-03-06T00:20:45.414Z,6.40
2019-03-06T00:22:01.874Z,6.40
2019-03-06T00:23:22.332Z,6.40
2019-03-06T00:24:38.761Z,6.30
2019-03-06T00:25:56.085Z,6.30
2019-03-06T00:27:12.623Z,6.30
2019-03-06T00:28:28.136Z,6.20
2019-03-06T00:29:52.259Z,6.20
2019-03-06T00:31:08.684Z,6.20
2019-03-06T00:32:25.243Z,6.20
2019-03-06T00:33:41.592Z,6.10
2019-03-06T00:34:59.325Z,6.20
2019-03-06T00:36:19.872Z,6.10
2019-03-06T00:37:37.467Z,6.10
2019-03-06T00:38:54.613Z,6.10
2019-03-06T00:42:01.813Z,6.10
2019-03-06T00:43:18.258Z,6.00
2019-03-06T00:44:34.613Z,6.00
2019-03-06T00:45:51.317Z,6.00
2019-03-06T00:47:07.909Z,6.00
2019-03-06T00:48:24.745Z,6.00
2019-03-06T00:49:41.242Z,6.00
2019-03-06T00:50:57.522Z,6.00
2019-03-06T00:52:14.563Z,6.00
2019-03-06T00:53:30.901Z,6.00
2019-03-06T00:54:47.622Z,6.00
2019-03-06T00:56:04.040Z,6.10
2019-03-06T00:57:20.537Z,6.10
2019-03-06T00:58:36.971Z,6.00
2019-03-06T00:59:53.410Z,6.00
2019-03-06T01:01:09.853Z,6.00
2019-03-06T01:02:27.124Z,6.10
2019-03-06T01:03:43.429Z,6.00
2019-03-06T01:05:00.476Z,6.00
2019-03-06T01:06:17.153Z,6.00
2019-03-06T01:07:33.681Z,6.00
2019-03-06T01:08:48.944Z,6.00
2019-03-06T01:10:13.126Z,6.00
2019-03-06T01:11:29.853Z,6.00
2019-03-06T01:12:46.293Z,5.90
2019-03-06T01:14:01.521Z,5.90
2019-03-06T01:15:26.671Z,5.90
2019-03-06T01:16:43.055Z,5.90
2019-03-06T01:17:59.539Z,5.90
2019-03-06T01:19:16.075Z,5.90
2019-03-06T01:20:32.722Z,5.90
2019-03-06T01:21:49.455Z,5.80
2019-03-06T01:23:05.997Z,5.80
2019-03-06T01:24:22.499Z,5.80
2019-03-06T01:25:39.895Z,5.80
2019-03-06T01:26:56.321Z,5.80
2019-03-06T01:28:13.033Z,5.80
2019-03-06T01:29:29.326Z,5.70
2019-03-06T01:30:45.746Z,5.70
2019-03-06T01:32:02.273Z,5.70
2019-03-06T01:33:44.621Z,5.70
2019-03-06T01:35:19.978Z,5.70
2019-03-06T01:36:55.480Z,5.70
2019-03-06T01:40:16.927Z,5.70
2019-03-06T01:41:52.478Z,5.60
2019-03-06T01:43:13.468Z,5.60
2019-03-06T01:44:34.973Z,5.60
2019-03-06T01:45:52.274Z,5.60
2019-03-06T01:47:09.029Z,5.60
2019-03-06T01:48:25.365Z,5.60
2019-03-06T01:49:41.890Z,5.60
2019-03-06T01:50:58.838Z,5.60
2019-03-06T01:52:15.482Z,5.60
2019-03-06T01:53:32.016Z,5.60
2019-03-06T01:54:48.573Z,5.60
2019-03-06T01:56:05.155Z,5.60
2019-03-06T01:57:21.686Z,5.60
2019-03-06T01:58:38.184Z,5.60
2019-03-06T01:59:54.619Z,5.60
2019-03-06T02:01:11.021Z,5.60
2019-03-06T02:02:27.593Z,5.60
2019-03-06T02:03:44.025Z,5.60
2019-03-06T02:05:00.834Z,5.60
2019-03-06T02:06:18.023Z,5.60
2019-03-06T02:07:34.561Z,5.60
2019-03-06T02:08:51.289Z,5.60
2019-03-06T02:10:07.830Z,5.70
2019-03-06T02:11:24.841Z,5.70
2019-03-06T02:12:44.483Z,5.60
2019-03-06T02:14:02.035Z,5.70
2019-03-06T02:15:18.459Z,5.70
2019-03-06T02:16:35.528Z,5.70
2019-03-06T02:17:51.898Z,5.70
2019-03-06T02:19:08.533Z,5.70
2019-03-06T02:20:26.046Z,5.70
2019-03-06T02:21:42.959Z,5.70
2019-03-06T02:23:00.133Z,5.60
2019-03-06T02:24:17.197Z,5.70
2019-03-06T02:25:33.811Z,5.70
2019-03-06T02:26:50.913Z,5.70
2019-03-06T02:28:07.371Z,5.60
2019-03-06T02:29:24.021Z,5.50
2019-03-06T02:30:40.426Z,5.50
2019-03-06T02:31:56.790Z,5.50
2019-03-06T02:33:13.401Z,5.60
2019-03-06T02:34:29.812Z,5.60
2019-03-06T02:35:46.299Z,5.60
2019-03-06T02:37:02.766Z,5.50
2019-03-06T02:38:19.941Z,5.50
2019-03-06T02:39:36.451Z,5.50
2019-03-06T02:40:53.297Z,5.50
2019-03-06T02:42:09.575Z,5.50
2019-03-06T02:43:26.326Z,5.50
2019-03-06T02:44:42.733Z,5.50
2019-03-06T02:45:59.929Z,5.50
2019-03-06T02:47:16.438Z,5.50
2019-03-06T02:48:33.403Z,5.50
2019-03-06T02:49:49.972Z,5.50
2019-03-06T02:51:06.350Z,5.50
2019-03-06T02:52:24.322Z,5.50
2019-03-06T02:53:41.125Z,5.50
2019-03-06T02:54:57.693Z,5.50
2019-03-06T02:56:14.055Z,5.50
2019-03-06T02:57:30.569Z,5.50
2019-03-06T02:59:06.542Z,5.50
2019-03-06T03:00:48.537Z,5.50
2019-03-06T03:02:24.281Z,5.40
2019-03-06T03:03:59.671Z,5.30
2019-03-06T03:05:24.980Z,5.30
2019-03-06T03:07:01.221Z,5.40
2019-03-06T03:08:18.394Z,5.40
2019-03-06T03:09:35.274Z,5.30
2019-03-06T03:10:51.605Z,5.30
2019-03-06T03:12:08.009Z,5.40
2019-03-06T03:13:24.625Z,5.40
2019-03-06T03:14:41.224Z,5.40
2019-03-06T03:15:57.766Z,5.40
2019-03-06T03:17:14.139Z,5.40
2019-03-06T03:18:29.391Z,5.40
2019-03-06T03:19:53.681Z,5.40
2019-03-06T03:21:10.223Z,5.30
2019-03-06T03:22:27.532Z,5.30
2019-03-06T03:23:44.078Z,5.30
2019-03-06T03:25:00.503Z,5.30
2019-03-06T03:26:17.078Z,5.30
2019-03-06T03:27:33.527Z,5.30
2019-03-06T03:28:50.391Z,5.30
2019-03-06T03:30:07.581Z,5.30
2019-03-06T03:31:24.741Z,5.30
2019-03-06T03:32:41.370Z,5.30
2019-03-06T03:33:58.137Z,5.30
2019-03-06T03:35:14.907Z,5.30
2019-03-06T03:36:31.737Z,5.30
2019-03-06T03:37:48.925Z,5.30
2019-03-06T03:39:05.397Z,5.30
2019-03-06T03:40:22.984Z,5.20
2019-03-06T03:41:39.312Z,5.20
2019-03-06T03:42:55.889Z,5.20
2019-03-06T03:44:13.252Z,5.20
2019-03-06T03:45:29.545Z,5.20
2019-03-06T03:46:46.768Z,5.20
2019-03-06T03:48:03.419Z,5.20
2019-03-06T03:49:20.123Z,5.20
2019-03-06T03:50:36.529Z,5.20
2019-03-06T03:51:53.020Z,5.20
2019-03-06T03:53:09.485Z,5.20
2019-03-06T03:54:25.973Z,5.20
2019-03-06T03:55:42.878Z,5.20
2019-03-06T03:56:59.435Z,5.20
2019-03-06T03:58:17.072Z,5.20
2019-03-06T03:59:33.346Z,5.10
2019-03-06T04:00:49.785Z,5.10
2019-03-06T04:02:06.781Z,5.20
2019-03-06T04:03:23.982Z,5.10
2019-03-06T04:04:41.134Z,5.10
2019-03-06T04:05:57.416Z,5.10
2019-03-06T04:07:16.460Z,5.10
2019-03-06T04:08:31.780Z,5.20
2019-03-06T04:09:55.898Z,5.10
2019-03-06T04:11:20.068Z,5.10
2019-03-06T04:12:36.937Z,5.10
2019-03-06T04:13:54.321Z,5.00
2019-03-06T04:15:10.755Z,5.00
2019-03-06T04:16:27.561Z,5.00
2019-03-06T04:17:44.033Z,4.90
2019-03-06T04:19:00.365Z,4.90
2019-03-06T04:20:16.779Z,4.90
2019-03-06T04:21:33.880Z,4.80
2019-03-06T04:22:50.372Z,4.80
2019-03-06T04:24:07.921Z,4.80
2019-03-06T04:25:24.480Z,4.80
2019-03-06T04:26:41.675Z,4.90
2019-03-06T04:27:58.291Z,4.80
2019-03-06T04:29:14.753Z,4.80
2019-03-06T04:30:31.209Z,4.80
2019-03-06T04:31:47.741Z,4.80
2019-03-06T04:33:04.734Z,4.80
2019-03-06T04:34:21.368Z,4.80
2019-03-06T04:35:37.993Z,4.80
2019-03-06T04:36:54.642Z,4.80
2019-03-06T04:38:11.303Z,4.90
2019-03-06T04:39:28.381Z,4.90
2019-03-06T04:42:00.555Z,4.90
2019-03-06T04:43:17.853Z,4.90
2019-03-06T04:44:34.317Z,4.90
2019-03-06T04:45:50.913Z,5.00
2019-03-06T04:47:07.561Z,5.00
2019-03-06T04:48:23.861Z,5.00
2019-03-06T04:49:40.425Z,5.00
2019-03-06T04:50:56.922Z,5.00
2019-03-06T04:52:13.250Z,5.00
2019-03-06T04:53:29.624Z,5.00
2019-03-06T04:54:46.029Z,5.00
2019-03-06T04:56:02.876Z,5.10
2019-03-06T04:57:19.286Z,5.00
2019-03-06T04:58:36.361Z,5.10
2019-03-06T04:59:53.185Z,5.10
2019-03-06T05:01:10.337Z,5.10
2019-03-06T05:02:26.759Z,5.00
2019-03-06T05:03:43.465Z,5.00
2019-03-06T05:05:00.733Z,5.00
2019-03-06T05:06:17.493Z,4.90
2019-03-06T05:07:34.723Z,4.80
2019-03-06T05:08:51.256Z,4.80
2019-03-06T05:10:08.027Z,4.80
2019-03-06T05:11:24.509Z,4.70
2019-03-06T05:12:40.940Z,4.80
2019-03-06T05:13:57.378Z,4.70
2019-03-06T05:15:14.790Z,4.70
2019-03-06T05:16:50.753Z,4.70
2019-03-06T05:18:13.505Z,4.60
2019-03-06T05:19:30.447Z,4.60
2019-03-06T05:20:47.494Z,4.60
2019-03-06T05:22:04.136Z,4.60
2019-03-06T05:23:20.597Z,4.60
2019-03-06T05:24:37.094Z,4.60
2019-03-06T05:25:54.302Z,4.60
2019-03-06T05:27:11.225Z,4.60
2019-03-06T05:28:27.769Z,4.60
2019-03-06T05:29:44.091Z,4.60
2019-03-06T05:31:00.989Z,4.70
2019-03-06T05:32:17.524Z,4.70
2019-03-06T05:33:33.841Z,4.70
2019-03-06T05:34:50.258Z,4.80
2019-03-06T05:36:06.740Z,4.80
2019-03-06T05:38:39.273Z,4.90
2019-03-06T05:39:55.806Z,4.80
2019-03-06T05:41:12.585Z,4.80
2019-03-06T05:42:28.919Z,4.80
2019-03-06T05:43:45.394Z,4.80
2019-03-06T05:45:02.746Z,4.80
2019-03-06T05:46:19.336Z,4.80
2019-03-06T05:47:36.572Z,4.80
2019-03-06T05:48:53.510Z,4.80
2019-03-06T05:50:10.063Z,4.80
2019-03-06T05:51:26.551Z,4.80
2019-03-06T05:52:43.272Z,4.80
2019-03-06T05:54:00.311Z,4.80
2019-03-06T05:55:16.749Z,4.80
2019-03-06T05:56:33.576Z,4.90
2019-03-06T05:57:50.098Z,4.90
2019-03-06T05:59:07.163Z,4.80
2019-03-06T06:00:26.468Z,4.80
2019-03-06T06:01:43.130Z,4.80
2019-03-06T06:02:59.509Z,4.80
2019-03-06T06:04:16.061Z,4.80
2019-03-06T06:05:32.699Z,4.70
2019-03-06T06:06:49.740Z,4.70
2019-03-06T06:08:06.548Z,4.80
2019-03-06T06:09:23.932Z,4.90
2019-03-06T06:10:40.542Z,5.00
2019-03-06T06:11:57.589Z,5.10
2019-03-06T06:13:14.799Z,5.30
2019-03-06T06:14:31.984Z,5.50
2019-03-06T06:15:48.374Z,5.70
2019-03-06T06:17:05.568Z,6.00
2019-03-06T06:18:22.339Z,6.30
2019-03-06T06:19:39.042Z,6.50
2019-03-06T06:21:14.498Z,6.60
2019-03-06T06:22:35.976Z,6.60
2019-03-06T06:23:56.630Z,6.70
2019-03-06T06:25:13.018Z,6.70
2019-03-06T06:26:29.621Z,7.00
2019-03-06T06:27:46.372Z,7.40
2019-03-06T06:29:02.921Z,8.00
2019-03-06T06:30:19.508Z,8.60
2019-03-06T06:31:35.829Z,9.30
2019-03-06T06:32:52.449Z,10.00
2019-03-06T06:34:09.029Z,10.90
2019-03-06T06:35:26.460Z,11.70
2019-03-06T06:36:44.178Z,12.50
2019-03-06T06:38:00.589Z,13.30
2019-03-06T06:39:17.153Z,14.00
2019-03-06T06:40:35.072Z,14.70
2019-03-06T06:41:52.180Z,15.50
2019-03-06T06:43:09.279Z,16.20
2019-03-06T06:44:24.533Z,16.80
2019-03-06T06:45:40.982Z,17.40
2019-03-06T06:46:56.179Z,17.80
2019-03-06T06:48:20.857Z,18.30
2019-03-06T06:49:37.382Z,18.50
2019-03-06T06:51:01.235Z,18.70
2019-03-06T06:52:12.718Z,18.80
2019-03-06T06:53:29.941Z,18.80
2019-03-06T06:54:46.416Z,18.90
2019-03-06T06:56:03.700Z,19.10
2019-03-06T06:57:20.108Z,19.30
2019-03-06T06:58:37.046Z,19.60
2019-03-06T06:59:53.811Z,19.90
2019-03-06T07:01:47.131Z,20.20
2019-03-06T07:03:49.321Z,20.50
2019-03-06T07:05:24.649Z,20.80
2019-03-06T07:07:00.174Z,21.30
2019-03-06T07:08:36.242Z,21.70
2019-03-06T07:10:12.223Z,22.00
2019-03-06T07:11:48.405Z,22.20
2019-03-06T07:13:17.345Z,22.40
2019-03-06T07:14:52.717Z,22.60
2019-03-06T07:16:27.996Z,23.10
2019-03-06T07:18:22.691Z,23.50
2019-03-06T07:21:40.093Z,24.10
2019-03-06T07:23:09.225Z,24.20
2019-03-06T07:24:45.107Z,23.90
2019-03-06T07:26:01.938Z,23.60
2019-03-06T07:27:37.770Z,23.00
2019-03-06T07:29:13.117Z,22.50
2019-03-06T07:30:48.712Z,22.20
2019-03-06T07:32:18.389Z,21.30
2019-03-06T07:33:53.795Z,20.90
2019-03-06T07:35:28.829Z,20.50
2019-03-06T07:36:52.966Z,20.40
2019-03-06T07:38:12.538Z,20.10
2019-03-06T07:41:38.274Z,19.40
2019-03-06T07:43:13.632Z,18.80
2019-03-06T07:44:52.962Z,18.50
2019-03-06T07:46:38.782Z,18.00
2019-03-06T07:48:07.698Z,17.90
2019-03-06T07:49:45.422Z,17.80
2019-03-06T07:51:26.691Z,17.70
2019-03-06T07:53:08.465Z,17.60
2019-03-06T07:54:33.894Z,17.70
2019-03-06T07:56:12.057Z,17.90
2019-03-06T07:57:39.425Z,18.30
2019-03-06T07:58:56.288Z,18.90
2019-03-06T08:00:12.879Z,19.00
2019-03-06T08:01:29.185Z,19.40
2019-03-06T08:02:46.791Z,19.40
2019-03-06T08:04:03.757Z,19.50
2019-03-06T08:05:20.117Z,19.50
2019-03-06T08:06:37.478Z,19.60
2019-03-06T08:07:54.352Z,19.90
2019-03-06T08:09:10.697Z,20.10
2019-03-06T08:10:30.649Z,20.50
2019-03-06T08:12:09.555Z,20.60
2019-03-06T08:15:22.967Z,20.60
2019-03-06T08:18:10.501Z,19.70
2019-03-06T08:19:46.114Z,19.30
2019-03-06T08:21:21.430Z,18.60
2019-03-06T08:22:59.602Z,18.60
2019-03-06T08:24:35.170Z,18.80
2019-03-06T08:25:52.218Z,19.00
2019-03-06T08:27:09.518Z,19.00
2019-03-06T08:28:26.034Z,19.00
2019-03-06T08:29:43.241Z,19.00
2019-03-06T08:31:24.737Z,19.00
2019-03-06T08:32:42.046Z,19.30
2019-03-06T08:33:59.241Z,19.70
2019-03-06T08:35:15.913Z,19.80
2019-03-06T08:36:32.358Z,20.30
2019-03-06T08:37:48.638Z,20.40
2019-03-06T08:39:05.605Z,20.20
2019-03-06T08:40:23.961Z,20.00
2019-03-06T08:41:41.232Z,19.60
2019-03-06T08:42:58.450Z,19.30
2019-03-06T08:44:15.024Z,19.20
2019-03-06T08:47:42.107Z,18.90
2019-03-06T08:49:06.749Z,18.80
2019-03-06T08:50:37.124Z,18.50
2019-03-06T08:52:12.617Z,18.70
2019-03-06T08:53:55.034Z,18.60
2019-03-06T08:55:17.345Z,18.30
2019-03-06T08:56:53.186Z,17.90
2019-03-06T08:58:29.094Z,17.80
2019-03-06T09:00:04.455Z,17.60
2019-03-06T09:01:41.633Z,17.50
2019-03-06T09:03:17.204Z,17.50
2019-03-06T09:06:36.422Z,17.90
2019-03-06T09:08:11.801Z,18.20
2019-03-06T09:09:42.364Z,18.50
2019-03-06T09:11:24.893Z,18.70
2019-03-06T09:12:46.901Z,18.90
2019-03-06T09:14:18.033Z,19.00
2019-03-06T09:16:04.022Z,19.10
2019-03-06T09:17:33.850Z,19.40
2019-03-06T09:19:09.203Z,19.80
2019-03-06T09:22:38.148Z,20.10
2019-03-06T09:24:13.522Z,19.90
2019-03-06T09:25:51.985Z,19.80
2019-03-06T09:27:26.184Z,19.40
2019-03-06T09:29:01.015Z,19.50
2019-03-06T09:30:38.342Z,19.50
2019-03-06T09:35:29.357Z,18.90
2019-03-06T09:37:07.625Z,18.90
2019-03-06T09:38:46.116Z,19.40
2019-03-06T09:40:21.651Z,19.80
2019-03-06T09:42:02.909Z,20.20
2019-03-06T09:43:41.677Z,20.50
2019-03-06T09:45:17.598Z,21.00
2019-03-06T09:46:54.410Z,21.40
2019-03-06T09:48:17.347Z,21.10
2019-03-06T09:49:39.768Z,21.10
2019-03-06T09:51:01.722Z,21.20
2019-03-06T09:52:37.049Z,21.30
2019-03-06T09:54:01.235Z,21.60
2019-03-06T09:56:52.703Z,21.20
2019-03-06T09:58:15.625Z,21.00
2019-03-06T09:59:51.617Z,21.30
2019-03-06T10:01:27.765Z,21.20
2019-03-06T10:02:51.061Z,21.20
2019-03-06T10:04:26.471Z,21.00
2019-03-06T10:06:05.167Z,20.70
2019-03-06T10:09:17.274Z,20.00
2019-03-06T10:10:57.616Z,19.30
2019-03-06T10:12:25.151Z,19.10
2019-03-06T10:14:01.247Z,19.10
2019-03-06T10:15:37.013Z,19.00
2019-03-06T10:17:00.433Z,19.00
2019-03-06T10:18:35.930Z,18.70
2019-03-06T10:20:00.754Z,18.60
2019-03-06T10:21:17.119Z,18.20
2019-03-06T10:22:33.741Z,18.00
2019-03-06T10:23:51.014Z,17.60
2019-03-06T10:25:08.513Z,17.10
2019-03-06T10:26:24.977Z,16.80
2019-03-06T10:27:41.474Z,16.60
2019-03-06T10:28:58.555Z,16.40
2019-03-06T10:30:18.623Z,16.10
2019-03-06T10:31:35.152Z,16.10
2019-03-06T10:32:52.056Z,15.90
2019-03-06T10:34:08.566Z,15.70
2019-03-06T10:35:26.035Z,15.50
2019-03-06T10:36:42.670Z,15.50
2019-03-06T10:38:00.699Z,15.60
2019-03-06T10:39:17.360Z,15.80
2019-03-06T10:40:33.698Z,15.60
2019-03-06T10:41:51.241Z,15.70
2019-03-06T10:43:08.086Z,15.60
2019-03-06T10:44:29.589Z,15.40
2019-03-06T10:45:43.921Z,15.10
2019-03-06T10:47:00.500Z,15.00
2019-03-06T10:48:18.128Z,14.90
2019-03-06T10:49:34.920Z,14.90
2019-03-06T10:50:52.485Z,14.90
2019-03-06T10:52:10.716Z,14.90
2019-03-06T10:53:28.285Z,14.90
2019-03-06T10:54:45.127Z,14.90
2019-03-06T10:56:02.288Z,14.90
2019-03-06T10:57:19.562Z,14.80
2019-03-06T10:58:36.277Z,14.90
2019-03-06T10:59:53.485Z,15.00
2019-03-06T11:01:09.864Z,15.10
2019-03-06T11:02:26.514Z,15.10
2019-03-06T11:05:37.243Z,14.90
2019-03-06T11:06:54.884Z,14.90
2019-03-06T11:08:11.861Z,15.00
2019-03-06T11:10:45.228Z,15.00
2019-03-06T11:12:01.830Z,14.90
2019-03-06T11:14:35.043Z,14.90
2019-03-06T11:15:55.773Z,14.80
2019-03-06T11:17:10.062Z,14.80
2019-03-06T11:18:27.545Z,14.70
2019-03-06T11:19:44.306Z,14.70
2019-03-06T11:21:01.602Z,14.70
2019-03-06T11:22:18.144Z,14.70
2019-03-06T11:23:34.717Z,14.80
2019-03-06T11:24:51.168Z,14.80
2019-03-06T11:26:07.662Z,14.90
2019-03-06T11:27:24.794Z,15.00
2019-03-06T11:28:43.032Z,15.10
2019-03-06T11:29:59.429Z,15.20
2019-03-06T11:31:16.921Z,15.30
2019-03-06T11:32:33.381Z,15.40
2019-03-06T11:33:49.859Z,15.50
2019-03-06T11:35:06.241Z,15.50
2019-03-06T11:36:22.806Z,15.60
2019-03-06T11:37:40.008Z,15.70
2019-03-06T11:38:57.226Z,15.80
2019-03-06T11:40:14.384Z,15.80
2019-03-06T11:41:30.965Z,15.80
2019-03-06T11:42:47.456Z,15.90
2019-03-06T11:44:04.198Z,16.00
2019-03-06T11:45:21.522Z,16.00
2019-03-06T11:46:38.019Z,15.90
2019-03-06T11:47:54.502Z,15.80
2019-03-06T11:49:11.752Z,15.80
2019-03-06T11:50:28.110Z,15.90
2019-03-06T11:51:44.833Z,15.90
2019-03-06T11:53:01.335Z,16.10
2019-03-06T11:54:18.549Z,16.10
2019-03-06T11:55:35.742Z,16.20
2019-03-06T11:56:52.337Z,16.10
2019-03-06T11:58:09.231Z,16.20
2019-03-06T11:59:25.809Z,16.30
2019-03-06T12:00:45.921Z,16.40
2019-03-06T12:02:02.543Z,16.50
2019-03-06T12:03:20.316Z,16.70
2019-03-06T12:04:36.967Z,16.70
2019-03-06T12:05:53.505Z,16.80
2019-03-06T12:07:10.784Z,16.90
2019-03-06T12:08:27.164Z,17.00
2019-03-06T12:09:43.729Z,17.00
2019-03-06T12:11:00.241Z,17.00
2019-03-06T12:12:16.681Z,17.00
2019-03-06T12:13:33.404Z,17.00
2019-03-06T12:14:49.675Z,16.90
2019-03-06T12:16:06.225Z,17.00
2019-03-06T12:17:23.135Z,16.90
2019-03-06T12:18:39.658Z,16.80
2019-03-06T12:19:56.393Z,16.80
2019-03-06T12:21:13.170Z,16.80
2019-03-06T12:22:30.465Z,16.70
2019-03-06T12:23:46.934Z,16.70
2019-03-06T12:26:20.489Z,16.80
2019-03-06T12:27:37.305Z,16.70
2019-03-06T12:28:53.632Z,16.70
2019-03-06T12:30:10.146Z,16.80
2019-03-06T12:31:27.217Z,16.80
2019-03-06T12:34:00.118Z,16.70
2019-03-06T12:35:15.772Z,16.60
2019-03-06T12:36:40.033Z,16.60
2019-03-06T12:37:57.089Z,16.60
2019-03-06T12:39:13.772Z,16.80
2019-03-06T12:40:31.222Z,16.80
2019-03-06T12:41:47.664Z,16.80
2019-03-06T12:43:04.007Z,16.80
2019-03-06T12:44:20.448Z,16.90
2019-03-06T12:45:36.891Z,17.00
2019-03-06T12:46:53.865Z,17.00
2019-03-06T12:48:11.180Z,16.90
2019-03-06T12:49:27.683Z,17.00
2019-03-06T12:50:54.139Z,16.90
2019-03-06T12:52:03.092Z,17.00
2019-03-06T12:53:20.161Z,17.00
2019-03-06T12:54:36.618Z,17.00
2019-03-06T12:55:53.440Z,17.10
2019-03-06T12:57:13.185Z,17.10
2019-03-06T12:58:29.503Z,17.10
2019-03-06T12:59:46.585Z,17.10
2019-03-06T13:01:02.905Z,17.10
2019-03-06T13:02:20.054Z,17.10
2019-03-06T13:03:37.257Z,17.20
2019-03-06T13:04:54.421Z,17.20
2019-03-06T13:06:11.069Z,17.20
2019-03-06T13:07:26.713Z,17.20
2019-03-06T13:08:50.974Z,17.20
2019-03-06T13:10:09.089Z,17.20
2019-03-06T13:11:25.684Z,17.20
2019-03-06T13:12:43.033Z,17.30
2019-03-06T13:13:59.724Z,17.30
2019-03-06T13:15:15.700Z,17.30
2019-03-06T13:16:41.112Z,17.30
2019-03-06T13:19:19.469Z,17.30
2019-03-06T13:20:35.882Z,17.30
2019-03-06T13:21:52.318Z,17.30
2019-03-06T13:23:08.929Z,17.30
2019-03-06T13:24:25.867Z,17.40
2019-03-06T13:25:42.976Z,17.40
2019-03-06T13:26:59.612Z,17.30
2019-03-06T13:28:16.224Z,17.40
2019-03-06T13:29:33.200Z,17.40
2019-03-06T13:30:50.448Z,17.50
2019-03-06T13:32:11.776Z,17.50
2019-03-06T13:33:31.050Z,17.40
2019-03-06T13:34:53.789Z,17.40
2019-03-06T13:36:12.373Z,17.40
2019-03-06T13:37:29.029Z,17.40
2019-03-06T13:38:54.489Z,17.50
2019-03-06T13:40:04.717Z,17.40
2019-03-06T13:41:21.908Z,17.50
2019-03-06T13:42:38.250Z,17.40
2019-03-06T13:43:54.705Z,17.50
2019-03-06T13:45:12.058Z,17.40
2019-03-06T13:46:28.802Z,17.40
2019-03-06T13:47:45.569Z,17.40
2019-03-06T13:49:02.656Z,17.50
2019-03-06T13:50:20.094Z,17.50
2019-03-06T13:51:37.401Z,17.60
2019-03-06T13:52:53.795Z,17.60
2019-03-06T13:54:10.271Z,17.70
2019-03-06T13:55:26.578Z,17.60
2019-03-06T13:56:43.302Z,17.60
2019-03-06T13:57:58.629Z,17.60
2019-03-06T13:59:23.711Z,17.50
2019-03-06T14:00:40.084Z,17.60
2019-03-06T14:01:57.412Z,17.60
2019-03-06T14:03:13.958Z,17.60
2019-03-06T14:04:31.050Z,17.60
2019-03-06T14:05:47.537Z,17.60
2019-03-06T14:07:04.521Z,17.50
2019-03-06T14:08:21.851Z,17.50
2019-03-06T14:09:38.618Z,17.50
2019-03-06T14:10:56.129Z,17.60
2019-03-06T14:12:12.358Z,17.50
2019-03-06T14:13:27.662Z,17.50
2019-03-06T14:14:51.826Z,17.50
2019-03-06T14:16:08.874Z,17.50
2019-03-06T14:17:25.520Z,17.50
2019-03-06T14:18:41.950Z,17.50
2019-03-06T14:19:59.184Z,17.50
2019-03-06T14:21:15.661Z,17.50
2019-03-06T14:22:30.908Z,17.50
2019-03-06T14:23:55.028Z,17.50
2019-03-06T14:25:11.448Z,17.50
2019-03-06T14:26:28.193Z,17.50
2019-03-06T14:27:45.687Z,17.50
2019-03-06T14:29:02.241Z,17.50
2019-03-06T14:30:18.943Z,17.60
2019-03-06T14:31:35.378Z,17.50
2019-03-06T14:32:51.808Z,17.50
2019-03-06T14:34:09.461Z,17.50
2019-03-06T14:35:25.968Z,17.50
2019-03-06T14:36:43.642Z,17.50
2019-03-06T14:38:01.062Z,17.60
2019-03-06T14:39:17.557Z,17.50
2019-03-06T14:40:34.081Z,17.50
2019-03-06T14:41:51.578Z,17.50
2019-03-06T14:43:08.937Z,17.50
2019-03-06T14:44:26.328Z,17.50
2019-03-06T14:45:42.846Z,17.60
2019-03-06T14:46:59.457Z,17.60
2019-03-06T14:48:18.726Z,17.60
2019-03-06T14:49:35.386Z,17.60
2019-03-06T14:50:53.588Z,17.60
2019-03-06T14:52:10.171Z,17.50
2019-03-06T14:53:27.427Z,17.50
2019-03-06T14:54:43.814Z,17.40
2019-03-06T14:56:01.072Z,17.40
2019-03-06T14:57:18.369Z,17.40
2019-03-06T14:59:51.017Z,17.40
2019-03-06T15:01:08.178Z,17.40
2019-03-06T15:02:25.454Z,17.40
2019-03-06T15:03:42.655Z,17.40
2019-03-06T15:04:59.582Z,17.40
2019-03-06T15:06:16.015Z,17.40
2019-03-06T15:07:33.035Z,17.40
2019-03-06T15:08:49.642Z,17.40
2019-03-06T15:10:07.237Z,17.50
2019-03-06T15:11:32.732Z,17.40
2019-03-06T15:12:42.402Z,17.40
2019-03-06T15:13:59.146Z,17.40
2019-03-06T15:15:15.513Z,17.40
2019-03-06T15:16:32.143Z,17.40
2019-03-06T15:17:48.818Z,17.40
2019-03-06T15:19:05.284Z,17.40
2019-03-06T15:20:21.691Z,17.40
2019-03-06T15:21:38.564Z,17.50
2019-03-06T15:22:55.527Z,17.40
2019-03-06T15:24:12.762Z,17.40
2019-03-06T15:25:29.211Z,17.30
2019-03-06T15:26:46.702Z,17.40
2019-03-06T15:28:03.436Z,17.30
2019-03-06T15:29:19.806Z,17.30
2019-03-06T15:30:36.651Z,17.30
2019-03-06T15:31:53.325Z,17.30
2019-03-06T15:33:10.282Z,17.20
2019-03-06T15:34:28.394Z,17.20
2019-03-06T15:35:44.857Z,17.20
2019-03-06T15:37:01.308Z,17.10
2019-03-06T15:38:17.937Z,17.10
2019-03-06T15:39:42.605Z,17.10
2019-03-06T15:40:52.941Z,17.00
2019-03-06T15:42:09.775Z,17.00
2019-03-06T15:43:27.124Z,17.00
2019-03-06T15:44:43.919Z,16.90
2019-03-06T15:46:00.622Z,16.90
2019-03-06T15:47:17.882Z,16.80
2019-03-06T15:48:34.954Z,16.80
2019-03-06T15:49:52.142Z,16.70
2019-03-06T15:51:09.401Z,16.70
2019-03-06T15:52:26.120Z,16.70
2019-03-06T15:53:43.231Z,16.60
2019-03-06T15:54:58.381Z,16.60
2019-03-06T15:56:22.552Z,16.60
2019-03-06T15:57:39.457Z,16.50
2019-03-06T15:58:55.918Z,16.50
2019-03-06T16:00:13.826Z,16.40
2019-03-06T16:01:31.117Z,16.40
2019-03-06T16:02:48.165Z,16.30
2019-03-06T16:04:04.658Z,16.30
2019-03-06T16:05:21.632Z,16.20
2019-03-06T16:06:38.177Z,16.20
2019-03-06T16:07:55.468Z,16.10
2019-03-06T16:09:11.969Z,16.10
2019-03-06T16:10:28.697Z,16.00
2019-03-06T16:11:45.984Z,16.00
2019-03-06T16:13:02.600Z,15.90
2019-03-06T16:14:20.845Z,15.90
2019-03-06T16:15:38.319Z,15.90
2019-03-06T16:16:54.709Z,15.90
2019-03-06T16:18:11.066Z,15.80
2019-03-06T16:19:28.281Z,15.80
2019-03-06T16:20:44.628Z,15.80
2019-03-06T16:22:01.033Z,15.70
2019-03-06T16:23:17.678Z,15.70
2019-03-06T16:24:35.026Z,15.70
2019-03-06T16:25:51.421Z,15.70
2019-03-06T16:27:08.094Z,15.70
2019-03-06T16:28:25.809Z,15.60
2019-03-06T16:29:42.171Z,15.60
2019-03-06T16:30:59.112Z,15.70
2019-03-06T16:32:15.720Z,15.60
2019-03-06T16:33:32.946Z,15.70
2019-03-06T16:34:50.241Z,15.60
2019-03-06T16:36:07.218Z,15.60
2019-03-06T16:37:23.738Z,15.60
2019-03-06T16:38:40.872Z,15.60
2019-03-06T16:39:58.473Z,15.50
2019-03-06T16:41:15.323Z,15.50
2019-03-06T16:42:33.689Z,15.50
2019-03-06T16:43:53.913Z,15.50
2019-03-06T16:45:10.390Z,15.50
2019-03-06T16:46:26.840Z,15.50
2019-03-06T16:47:44.022Z,15.40
2019-03-06T16:49:00.603Z,15.40
2019-03-06T16:50:17.191Z,15.40
2019-03-06T16:51:33.681Z,15.40
2019-03-06T16:52:50.126Z,15.40
2019-03-06T16:54:07.017Z,15.40
2019-03-06T16:55:23.342Z,15.30
2019-03-06T16:56:40.191Z,15.30
2019-03-06T16:57:57.473Z,15.20
2019-03-06T16:59:14.736Z,15.20
2019-03-06T17:00:31.132Z,15.20
2019-03-06T17:01:47.565Z,15.10
2019-03-06T17:03:04.887Z,15.00
2019-03-06T17:04:21.786Z,15.00
2019-03-06T17:05:38.657Z,14.90
2019-03-06T17:06:54.955Z,14.90
2019-03-06T17:08:11.891Z,14.80
2019-03-06T17:09:28.486Z,14.80
2019-03-06T17:10:44.942Z,14.80
2019-03-06T17:12:02.163Z,14.70
2019-03-06T17:13:19.554Z,14.70
2019-03-06T17:14:36.112Z,14.70
2019-03-06T17:15:53.095Z,14.70
2019-03-06T17:17:09.835Z,14.60
2019-03-06T17:18:27.653Z,14.60
2019-03-06T17:19:44.748Z,14.60
2019-03-06T17:21:01.128Z,14.60
2019-03-06T17:22:18.394Z,14.50
2019-03-06T17:23:34.748Z,14.50
2019-03-06T17:24:52.055Z,14.50
2019-03-06T17:26:07.672Z,14.50
2019-03-06T17:27:31.771Z,14.40
2019-03-06T17:28:48.311Z,14.40
2019-03-06T17:30:05.467Z,14.40
2019-03-06T17:31:22.268Z,14.40
2019-03-06T17:32:39.502Z,14.40
2019-03-06T17:33:56.350Z,14.40
2019-03-06T17:35:12.976Z,14.40
2019-03-06T17:36:29.806Z,14.40
2019-03-06T17:37:46.181Z,14.40
2019-03-06T17:39:02.613Z,14.40
2019-03-06T17:40:20.816Z,14.40
2019-03-06T17:41:37.889Z,14.40
2019-03-06T17:42:54.393Z,14.40
2019-03-06T17:44:11.220Z,14.50
2019-03-06T17:45:28.642Z,14.50
2019-03-06T17:46:45.176Z,14.40
2019-03-06T17:48:02.480Z,14.50
2019-03-06T17:49:19.239Z,14.50
2019-03-06T17:50:36.480Z,14.50
2019-03-06T17:51:53.390Z,14.50
2019-03-06T17:53:10.562Z,14.50